Time;durP1;ratioP1;P1;durP2;ratioP2;P2;SDS_P1;SDS_P2;PMS_P1;PMS_P2;Temp;Humidity;BMP_temperature;BMP_pressure;BME280_temperature;BME280_humidity;BME280_pressure;Samples;Min_cycle;Max_cycle;Signal;HPM_P1;HPM_P2
2023/07/17 00:00:47;;;;;;;2.53;2.30;;;;;;;;;;4732361;30;20060;-78
2023/07/17 00:03:14;;;;;;;2.10;2.00;;;;;;;;;;4734193;30;20063;-78
2023/07/17 00:05:42;;;;;;;2.05;1.80;;;;;;;;;;4735271;30;20044;-78
2023/07/17 00:08:10;;;;;;;1.73;1.73;;;;;;;;;;4741642;30;20056;-78
2023/07/17 00:10:38;;;;;;;2.15;2.00;;;;;;;;;;4736967;30;20040;-77
2023/07/17 00:13:06;;;;;;;2.10;1.98;;;;;;;;;;4736789;30;20578;-78
2023/07/17 00:15:33;;;;;;;2.00;1.90;;;;;;;;;;4737036;30;20056;-78
2023/07/17 00:18:01;;;;;;;2.08;1.98;;;;;;;;;;4741870;30;20517;-78
2023/07/17 00:20:28;;;;;;;1.75;1.65;;;;;;;;;;4735199;30;20057;-78
2023/07/17 00:22:56;;;;;;;1.98;1.88;;;;;;;;;;4735809;30;20358;-78
2023/07/17 00:25:23;;;;;;;2.95;2.35;;;;;;;;;;4730326;30;20048;-77
2023/07/17 00:27:51;;;;;;;2.00;1.90;;;;;;;;;;4729867;30;20064;-77
2023/07/17 00:30:18;;;;;;;1.92;1.83;;;;;;;;;;4727820;30;20398;-77
2023/07/17 00:32:45;;;;;;;5.53;1.80;;;;;;;;;;4743527;30;20056;-78
2023/07/17 00:35:13;;;;;;;2.58;2.22;;;;;;;;;;4731549;30;20144;-78
2023/07/17 00:37:42;;;;;;;3.20;2.20;;;;;;;;;;4733015;30;20146;-78
2023/07/17 00:40:10;;;;;;;3.30;1.95;;;;;;;;;;4729681;30;20061;-78
2023/07/17 00:42:38;;;;;;;4.22;1.70;;;;;;;;;;4730909;30;20148;-78
2023/07/17 00:45:06;;;;;;;2.42;1.90;;;;;;;;;;4721782;30;20057;-76
2023/07/17 00:47:34;;;;;;;2.00;1.90;;;;;;;;;;4723391;30;20090;-77
2023/07/17 00:50:04;;;;;;;2.10;1.90;;;;;;;;;;4737574;30;20057;-76
2023/07/17 00:52:34;;;;;;;1.90;1.80;;;;;;;;;;4723616;30;20054;-76
2023/07/17 00:55:01;;;;;;;1.73;1.60;;;;;;;;;;4722471;30;20123;-81
2023/07/17 00:57:29;;;;;;;1.80;1.70;;;;;;;;;;4725459;30;20072;-76
2023/07/17 00:59:56;;;;;;;1.55;1.42;;;;;;;;;;4725547;30;20130;-77
2023/07/17 01:02:24;;;;;;;1.80;1.65;;;;;;;;;;4729156;30;20052;-77
2023/07/17 01:04:52;;;;;;;1.98;1.80;;;;;;;;;;4726098;30;20130;-76
2023/07/17 01:07:19;;;;;;;1.95;1.85;;;;;;;;;;4723240;30;20059;-79
2023/07/17 01:09:48;;;;;;;2.50;2.03;;;;;;;;;;4721953;30;20052;-78
2023/07/17 01:12:15;;;;;;;2.05;1.90;;;;;;;;;;4726793;30;20057;-78
2023/07/17 01:14:43;;;;;;;2.00;1.90;;;;;;;;;;4732148;30;20140;-76
2023/07/17 01:17:10;;;;;;;2.22;2.03;;;;;;;;;;4715093;30;20146;-77
2023/07/17 01:19:38;;;;;;;1.50;1.50;;;;;;;;;;4732214;30;20044;-77
2023/07/17 01:22:11;;;;;;;2.42;1.95;;;;;;;;;;4717674;30;20061;-79
2023/07/17 01:24:38;;;;;;;2.20;2.10;;;;;;;;;;4717358;30;20053;-77
2023/07/17 01:27:06;;;;;;;1.92;1.83;;;;;;;;;;4723593;30;20083;-80
2023/07/17 01:29:37;;;;;;;2.20;2.00;;;;;;;;;;4719560;30;20049;-82
2023/07/17 01:32:04;;;;;;;2.17;1.83;;;;;;;;;;4727870;30;20080;-78
2023/07/17 01:34:32;;;;;;;2.20;2.08;;;;;;;;;;4721078;30;20478;-78
2023/07/17 01:36:59;;;;;;;2.30;2.10;;;;;;;;;;4732424;30;20053;-78
2023/07/17 01:39:27;;;;;;;2.38;2.05;;;;;;;;;;4733197;30;20071;-78
2023/07/17 01:41:56;;;;;;;2.17;2.08;;;;;;;;;;4723736;30;20063;-78
2023/07/17 01:44:28;;;;;;;2.35;1.80;;;;;;;;;;4729572;30;20056;-79
2023/07/17 01:46:55;;;;;;;2.20;2.10;;;;;;;;;;4740507;30;20136;-78
2023/07/17 01:49:23;;;;;;;2.38;2.10;;;;;;;;;;4740224;30;20087;-75
2023/07/17 01:51:50;;;;;;;2.45;2.25;;;;;;;;;;4734498;30;20048;-78
2023/07/17 01:54:21;;;;;;;2.20;1.90;;;;;;;;;;4730961;30;20087;-78
2023/07/17 01:56:48;;;;;;;3.08;1.90;;;;;;;;;;4734154;30;20536;-78
2023/07/17 01:59:16;;;;;;;2.17;2.08;;;;;;;;;;4727093;30;20053;-78
2023/07/17 02:01:43;;;;;;;3.67;2.22;;;;;;;;;;4725158;30;20052;-78
2023/07/17 02:04:12;;;;;;;2.13;2.03;;;;;;;;;;4716202;30;20293;-78
2023/07/17 02:06:40;;;;;;;1.98;1.88;;;;;;;;;;4728452;30;20056;-78
2023/07/17 02:09:08;;;;;;;2.05;1.90;;;;;;;;;;4724063;30;20059;-78
2023/07/17 02:11:35;;;;;;;2.78;2.28;;;;;;;;;;4730290;30;20492;-78
2023/07/17 02:14:03;;;;;;;2.13;2.00;;;;;;;;;;4726022;30;20516;-78
2023/07/17 02:16:30;;;;;;;2.00;1.90;;;;;;;;;;4735109;30;20060;-78
2023/07/17 02:18:58;;;;;;;2.00;1.90;;;;;;;;;;4749526;30;20079;-78
2023/07/17 02:21:27;;;;;;;2.38;2.00;;;;;;;;;;4747046;30;20060;-78
2023/07/17 02:23:55;;;;;;;1.90;1.80;;;;;;;;;;4723533;30;20510;-77
2023/07/17 02:26:22;;;;;;;2.40;2.22;;;;;;;;;;4737538;30;20084;-78
2023/07/17 02:28:50;;;;;;;3.33;2.00;;;;;;;;;;4746200;30;20052;-78
2023/07/17 02:31:17;;;;;;;1.80;1.70;;;;;;;;;;4736214;30;20147;-78
2023/07/17 02:33:46;;;;;;;2.00;1.90;;;;;;;;;;4748738;30;20055;-77
2023/07/17 02:36:13;;;;;;;1.95;1.85;;;;;;;;;;4730340;30;20094;-77
2023/07/17 02:38:43;;;;;;;2.05;1.85;;;;;;;;;;4736492;30;20067;-77
2023/07/17 02:41:12;;;;;;;2.00;1.85;;;;;;;;;;4731140;30;20072;-77
2023/07/17 02:43:40;;;;;;;1.90;1.80;;;;;;;;;;4730533;30;20051;-77
2023/07/17 02:46:08;;;;;;;2.00;1.90;;;;;;;;;;4726238;30;20132;-78
2023/07/17 02:48:35;;;;;;;2.08;1.98;;;;;;;;;;4738867;30;20070;-78
2023/07/17 02:51:03;;;;;;;2.95;2.30;;;;;;;;;;4748843;30;20064;-78
2023/07/17 02:53:31;;;;;;;2.10;2.00;;;;;;;;;;4727201;30;20110;-78
2023/07/17 02:55:58;;;;;;;2.35;2.00;;;;;;;;;;4732936;30;20512;-78
2023/07/17 02:58:25;;;;;;;2.40;2.00;;;;;;;;;;4723724;30;20097;-77
2023/07/17 03:00:53;;;;;;;2.40;2.20;;;;;;;;;;4741498;30;20137;-78
2023/07/17 03:03:21;;;;;;;2.30;2.13;;;;;;;;;;4721227;30;20107;-78
2023/07/17 03:05:48;;;;;;;2.47;2.35;;;;;;;;;;4736709;30;20056;-78
2023/07/17 03:08:16;;;;;;;2.83;2.10;;;;;;;;;;4736920;30;20076;-78
2023/07/17 03:10:43;;;;;;;2.47;2.28;;;;;;;;;;4743451;30;20055;-78
2023/07/17 03:13:11;;;;;;;2.50;2.30;;;;;;;;;;4729969;30;20067;-78
2023/07/17 03:15:39;;;;;;;1.98;1.88;;;;;;;;;;4725354;30;20056;-78
2023/07/17 03:18:06;;;;;;;2.95;2.28;;;;;;;;;;4738261;30;20504;-78
2023/07/17 03:20:34;;;;;;;3.63;2.42;;;;;;;;;;4740873;30;20056;-78
2023/07/17 03:23:02;;;;;;;2.25;2.15;;;;;;;;;;4727320;30;20518;-77
2023/07/17 03:25:30;;;;;;;2.00;1.90;;;;;;;;;;4725104;30;20059;-79
2023/07/17 03:27:57;;;;;;;2.13;2.00;;;;;;;;;;4723351;30;20045;-78
2023/07/17 03:30:24;;;;;;;2.80;2.22;;;;;;;;;;4714316;30;20068;-78
2023/07/17 03:32:52;;;;;;;2.47;2.28;;;;;;;;;;4721128;30;20044;-77
2023/07/17 03:35:19;;;;;;;2.80;2.60;;;;;;;;;;4735263;30;20052;-76
2023/07/17 03:37:47;;;;;;;2.40;2.30;;;;;;;;;;4730069;30;20470;-77
2023/07/17 03:40:15;;;;;;;2.47;2.28;;;;;;;;;;4727740;30;20489;-78
2023/07/17 03:42:42;;;;;;;2.70;2.47;;;;;;;;;;4721639;30;20425;-77
2023/07/17 03:45:10;;;;;;;5.55;3.40;;;;;;;;;;4743736;30;20149;-77
2023/07/17 03:47:39;;;;;;;3.38;2.95;;;;;;;;;;4733919;30;20056;-80
2023/07/17 03:50:06;;;;;;;3.72;2.70;;;;;;;;;;4739890;30;20059;-78
2023/07/17 03:52:34;;;;;;;3.13;2.85;;;;;;;;;;4724692;30;20070;-79
2023/07/17 03:55:02;;;;;;;2.70;2.50;;;;;;;;;;4728565;30;20059;-77
2023/07/17 03:57:30;;;;;;;3.03;2.83;;;;;;;;;;4730997;30;20323;-77
2023/07/17 03:59:57;;;;;;;2.75;2.55;;;;;;;;;;4722551;30;20111;-81
2023/07/17 04:02:41;;;;;;;3.95;3.00;;;;;;;;;;4737137;30;20067;-79
2023/07/17 04:05:15;;;;;;;2.97;2.78;;;;;;;;;;4744954;30;20056;-79
2023/07/17 04:07:42;;;;;;;3.72;3.20;;;;;;;;;;4732455;30;20052;-79
2023/07/17 04:10:10;;;;;;;4.35;3.10;;;;;;;;;;4735116;30;20052;-79
2023/07/17 04:12:37;;;;;;;3.33;2.70;;;;;;;;;;4736469;30;20056;-78
2023/07/17 04:15:05;;;;;;;3.00;2.67;;;;;;;;;;4740383;30;20076;-78
2023/07/17 04:17:32;;;;;;;3.97;2.47;;;;;;;;;;4736161;24;20057;-84
2023/07/17 04:20:00;;;;;;;2.88;2.70;;;;;;;;;;4762448;30;20056;-85
2023/07/17 04:22:27;;;;;;;3.83;3.50;;;;;;;;;;4761922;30;20101;-85
2023/07/17 04:24:55;;;;;;;2.92;2.72;;;;;;;;;;4764930;30;20075;-85
2023/07/17 04:27:22;;;;;;;2.72;2.53;;;;;;;;;;4760842;30;20071;-85
2023/07/17 04:29:51;;;;;;;3.05;2.78;;;;;;;;;;4754847;30;20065;-84
2023/07/17 04:32:19;;;;;;;3.15;2.88;;;;;;;;;;4761525;30;20058;-85
2023/07/17 04:34:46;;;;;;;3.20;3.00;;;;;;;;;;4766167;30;20596;-86
2023/07/17 04:37:13;;;;;;;2.85;2.70;;;;;;;;;;4762435;30;20064;-85
2023/07/17 04:39:41;;;;;;;3.30;3.00;;;;;;;;;;4762597;30;20067;-85
2023/07/17 04:42:09;;;;;;;3.67;3.38;;;;;;;;;;4761598;30;20060;-86
2023/07/17 04:44:36;;;;;;;5.78;3.13;;;;;;;;;;4755508;30;20066;-85
2023/07/17 04:47:04;;;;;;;3.03;2.83;;;;;;;;;;4762477;30;20505;-84
2023/07/17 04:49:32;;;;;;;3.75;3.42;;;;;;;;;;4763569;30;20044;-85
2023/07/17 04:52:00;;;;;;;2.95;2.80;;;;;;;;;;4770175;30;20095;-85
2023/07/17 04:54:27;;;;;;;3.08;2.88;;;;;;;;;;4762617;30;20071;-85
2023/07/17 04:56:55;;;;;;;3.15;2.92;;;;;;;;;;4760348;30;20056;-85
2023/07/17 04:59:24;;;;;;;3.42;3.22;;;;;;;;;;4764162;30;20094;-85
2023/07/17 05:01:52;;;;;;;2.78;2.53;;;;;;;;;;4764859;30;20143;-85
2023/07/17 05:04:19;;;;;;;2.67;2.58;;;;;;;;;;4763710;30;20095;-85
2023/07/17 05:06:47;;;;;;;3.10;2.90;;;;;;;;;;4753217;30;20142;-85
2023/07/17 05:09:14;;;;;;;3.25;3.00;;;;;;;;;;4761506;30;20058;-85
2023/07/17 05:11:42;;;;;;;3.15;2.95;;;;;;;;;;4764154;30;20143;-85
2023/07/17 05:14:11;;;;;;;3.67;2.83;;;;;;;;;;4759366;30;20162;-85
2023/07/17 05:16:39;;;;;;;3.58;3.28;;;;;;;;;;4758721;30;20124;-85
2023/07/17 05:19:07;;;;;;;3.15;2.95;;;;;;;;;;4764936;30;20056;-85
2023/07/17 05:21:36;;;;;;;2.80;2.60;;;;;;;;;;4757064;30;20555;-85
2023/07/17 05:24:04;;;;;;;3.05;2.85;;;;;;;;;;4759934;30;20062;-85
2023/07/17 05:26:32;;;;;;;3.60;3.30;;;;;;;;;;4759157;30;20143;-86
2023/07/17 05:29:00;;;;;;;4.90;2.72;;;;;;;;;;4753548;30;20056;-85
2023/07/17 05:31:28;;;;;;;3.10;2.88;;;;;;;;;;4757040;30;20055;-86
2023/07/17 05:33:56;;;;;;;3.90;3.50;;;;;;;;;;4765871;30;20126;-86
2023/07/17 05:36:23;;;;;;;2.92;2.72;;;;;;;;;;4761271;29;20062;-86
2023/07/17 05:38:51;;;;;;;3.00;2.80;;;;;;;;;;4761545;30;20060;-86
2023/07/17 05:41:19;;;;;;;3.92;3.55;;;;;;;;;;4760745;30;20052;-85
2023/07/17 05:43:47;;;;;;;3.60;3.22;;;;;;;;;;4754080;30;20054;-85
2023/07/17 05:46:18;;;;;;;2.88;2.78;;;;;;;;;;4767036;30;20772;-84
2023/07/17 05:48:45;;;;;;;3.00;2.80;;;;;;;;;;4770212;30;20054;-86
2023/07/17 05:51:13;;;;;;;2.92;2.63;;;;;;;;;;4765925;30;20127;-86
2023/07/17 05:53:43;;;;;;;3.33;3.03;;;;;;;;;;4770668;30;20043;-86
2023/07/17 05:56:27;;;;;;;3.47;3.28;;;;;;;;;;4760361;30;20539;-85
2023/07/17 05:58:55;;;;;;;3.38;3.10;;;;;;;;;;4771588;30;20057;-85
2023/07/17 06:01:24;;;;;;;3.55;3.28;;;;;;;;;;4771064;30;20614;-85
2023/07/17 06:03:54;;;;;;;5.13;3.70;;;;;;;;;;4754614;30;20476;-85
2023/07/17 06:10:59;;;;;;;3.60;3.30;;;;;;;;;;4754262;30;20143;-85
2023/07/17 06:14:45;;;;;;;3.47;3.17;;;;;;;;;;4716299;30;20608;-84
2023/07/17 06:18:25;;;;;;;8.60;3.70;;;;;;;;;;4679888;30;20192;-85
2023/07/17 06:24:39;;;;;;;4.43;3.60;;;;;;;;;;4734756;30;20151;-86
2023/07/17 06:27:27;;;;;;;4.32;3.92;;;;;;;;;;4733259;30;20084;-86
2023/07/17 06:34:53;;;;;;;4.03;3.38;;;;;;;;;;4645862;30;20050;-88
2023/07/17 06:37:51;;;;;;;4.90;3.60;;;;;;;;;;4666219;30;20603;-87
2023/07/17 06:41:00;;;;;;;3.40;3.10;;;;;;;;;;4713881;30;20590;-86
2023/07/17 06:43:50;;;;;;;5.00;3.70;;;;;;;;;;4719969;30;20131;-86
2023/07/17 06:46:25;;;;;;;3.63;3.33;;;;;;;;;;4710055;30;20186;-87
2023/07/17 06:49:03;;;;;;;3.58;3.30;;;;;;;;;;4725189;30;20082;-87
2023/07/17 06:52:10;;;;;;;4.43;3.92;;;;;;;;;;4750086;30;20052;-87
2023/07/17 06:55:09;;;;;;;3.90;3.60;;;;;;;;;;4749201;30;20048;-88
2023/07/17 06:58:48;;;;;;;9.88;3.17;;;;;;;;;;4735767;30;20067;-89
2023/07/17 07:01:46;;;;;;;3.70;3.40;;;;;;;;;;4732692;30;20060;-89
2023/07/17 07:08:23;;;;;;;5.25;3.58;;;;;;;;;;4732402;30;20084;-88
2023/07/17 07:11:37;;;;;;;4.63;3.83;;;;;;;;;;4701695;30;20082;-89
2023/07/17 07:22:11;;;;;;;5.43;3.22;;;;;;;;;;4726832;30;20048;-90
2023/07/17 07:24:47;;;;;;;3.35;3.10;;;;;;;;;;4913437;24;20771;-77
2023/07/17 07:27:15;;;;;;;4.00;3.70;;;;;;;;;;4746252;30;20056;-78
2023/07/17 07:29:42;;;;;;;3.97;3.65;;;;;;;;;;4745565;30;20132;-78
2023/07/17 07:32:10;;;;;;;6.80;4.20;;;;;;;;;;4747442;30;20056;-77
2023/07/17 07:34:38;;;;;;;3.92;3.58;;;;;;;;;;4742085;30;20455;-79
2023/07/17 07:37:06;;;;;;;3.88;3.58;;;;;;;;;;4739742;30;20044;-79
2023/07/17 07:39:33;;;;;;;3.58;3.28;;;;;;;;;;4738670;30;20096;-81
2023/07/17 07:42:01;;;;;;;3.92;3.65;;;;;;;;;;4730734;30;20067;-79
2023/07/17 07:44:28;;;;;;;4.15;3.85;;;;;;;;;;4743177;30;20378;-78
2023/07/17 07:46:56;;;;;;;3.83;3.33;;;;;;;;;;4746796;30;20135;-78
2023/07/17 07:49:23;;;;;;;3.80;3.53;;;;;;;;;;4744026;30;20155;-79
2023/07/17 07:51:51;;;;;;;3.65;3.35;;;;;;;;;;4733033;30;20064;-80
2023/07/17 07:54:18;;;;;;;4.15;3.45;;;;;;;;;;4739263;30;20055;-78
2023/07/17 07:56:50;;;;;;;4.55;4.15;;;;;;;;;;4736324;30;20183;-79
2023/07/17 07:59:18;;;;;;;5.65;4.60;;;;;;;;;;4738837;30;20048;-77
2023/07/17 08:01:45;;;;;;;4.35;4.00;;;;;;;;;;4747196;30;20083;-78
2023/07/17 08:04:12;;;;;;;4.53;4.22;;;;;;;;;;4744961;30;20052;-78
2023/07/17 08:06:40;;;;;;;4.05;3.75;;;;;;;;;;4740161;30;20052;-77
2023/07/17 08:09:07;;;;;;;4.45;4.15;;;;;;;;;;4735091;30;20057;-78
2023/07/17 08:11:35;;;;;;;4.28;3.97;;;;;;;;;;4737792;30;20048;-78
2023/07/17 08:14:02;;;;;;;6.60;4.07;;;;;;;;;;4747832;30;20052;-78
2023/07/17 08:16:30;;;;;;;4.40;4.00;;;;;;;;;;4740841;30;20499;-78
2023/07/17 08:18:57;;;;;;;5.13;4.25;;;;;;;;;;4746092;30;20138;-77
2023/07/17 08:21:24;;;;;;;4.20;3.38;;;;;;;;;;4743843;30;20102;-78
2023/07/17 08:23:52;;;;;;;7.10;4.10;;;;;;;;;;4743307;30;20084;-80
2023/07/17 08:26:20;;;;;;;4.53;4.07;;;;;;;;;;4742510;30;20064;-78
2023/07/17 08:28:47;;;;;;;4.90;3.78;;;;;;;;;;4746578;30;20295;-77
2023/07/17 08:31:15;;;;;;;4.45;4.05;;;;;;;;;;4742235;30;20060;-79
2023/07/17 08:33:42;;;;;;;4.35;4.00;;;;;;;;;;4747634;30;20060;-77
2023/07/17 08:36:10;;;;;;;5.28;4.53;;;;;;;;;;4747849;30;20404;-77
2023/07/17 08:38:37;;;;;;;4.72;4.43;;;;;;;;;;4747694;30;20056;-78
2023/07/17 08:41:07;;;;;;;6.35;4.10;;;;;;;;;;4747564;30;20488;-76
2023/07/17 08:43:36;;;;;;;4.88;4.43;;;;;;;;;;4740434;30;20063;-77
2023/07/17 08:46:03;;;;;;;4.70;4.40;;;;;;;;;;4739687;30;20094;-78
2023/07/17 08:48:31;;;;;;;4.40;4.10;;;;;;;;;;4746568;30;20077;-78
2023/07/17 08:50:59;;;;;;;4.65;4.25;;;;;;;;;;4747393;30;20060;-77
2023/07/17 08:53:28;;;;;;;5.28;4.80;;;;;;;;;;4747734;30;20083;-78
2023/07/17 08:55:56;;;;;;;4.40;4.10;;;;;;;;;;4746695;30;20425;-77
2023/07/17 08:58:24;;;;;;;5.28;4.75;;;;;;;;;;4748116;30;20063;-77
2023/07/17 09:00:51;;;;;;;5.15;4.75;;;;;;;;;;4747622;30;20052;-77
2023/07/17 09:03:19;;;;;;;6.35;4.80;;;;;;;;;;4748388;30;20139;-77
2023/07/17 09:05:47;;;;;;;5.07;4.70;;;;;;;;;;4747622;30;20064;-78
2023/07/17 09:08:14;;;;;;;5.43;5.03;;;;;;;;;;4740623;30;20063;-77
2023/07/17 09:10:41;;;;;;;4.82;4.43;;;;;;;;;;4740266;30;20101;-77
2023/07/17 09:13:09;;;;;;;6.43;4.90;;;;;;;;;;4747813;30;20056;-77
2023/07/17 09:15:38;;;;;;;4.97;4.65;;;;;;;;;;4732951;30;20072;-77
2023/07/17 09:18:05;;;;;;;7.90;4.70;;;;;;;;;;4739903;30;20079;-77
2023/07/17 09:20:34;;;;;;;6.07;5.50;;;;;;;;;;4747029;30;20082;-77
2023/07/17 09:23:03;;;;;;;5.25;4.85;;;;;;;;;;4739561;30;20060;-78
2023/07/17 09:25:31;;;;;;;5.57;5.07;;;;;;;;;;4746482;30;20052;-77
2023/07/17 09:27:58;;;;;;;5.35;4.95;;;;;;;;;;4737159;30;20083;-77
2023/07/17 09:30:27;;;;;;;6.85;5.43;;;;;;;;;;4737686;30;20044;-77
2023/07/17 09:33:03;;;;;;;6.32;5.00;;;;;;;;;;4738157;30;20056;-76
2023/07/17 09:35:31;;;;;;;5.50;5.05;;;;;;;;;;4740380;30;20402;-76
2023/07/17 09:37:59;;;;;;;5.65;5.15;;;;;;;;;;4746622;30;20139;-77
2023/07/17 09:40:27;;;;;;;4.93;4.53;;;;;;;;;;4734190;30;20126;-78
2023/07/17 09:42:55;;;;;;;5.22;3.83;;;;;;;;;;4736765;30;20057;-77
2023/07/17 09:45:24;;;;;;;4.32;4.03;;;;;;;;;;4741323;30;20167;-77
2023/07/17 09:47:52;;;;;;;4.97;4.53;;;;;;;;;;4739670;30;20102;-77
2023/07/17 09:50:22;;;;;;;3.58;3.35;;;;;;;;;;4747154;30;20101;-77
2023/07/17 09:52:50;;;;;;;4.28;3.90;;;;;;;;;;4731343;30;20053;-77
2023/07/17 09:55:20;;;;;;;3.92;3.50;;;;;;;;;;4736594;30;20420;-76
2023/07/17 09:57:53;;;;;;;3.83;3.53;;;;;;;;;;4729754;30;20511;-77
2023/07/17 10:00:22;;;;;;;3.75;3.55;;;;;;;;;;4741414;30;20060;-77
2023/07/17 10:02:49;;;;;;;3.47;3.28;;;;;;;;;;4738507;30;20504;-79
2023/07/17 10:05:17;;;;;;;3.92;3.63;;;;;;;;;;4736770;30;20060;-77
2023/07/17 10:07:48;;;;;;;3.72;3.42;;;;;;;;;;4743705;30;20060;-76
2023/07/17 10:10:16;;;;;;;;;;;;;;;;;;4740372;30;20057;-77
2023/07/17 10:12:43;;;;;;;3.63;3.33;;;;;;;;;;4746692;30;19977;-77
2023/07/17 10:15:12;;;;;;;3.13;2.92;;;;;;;;;;4739475;30;20052;-77
2023/07/17 10:17:41;;;;;;;3.53;3.20;;;;;;;;;;4739898;30;20589;-77
2023/07/17 10:20:09;;;;;;;6.35;3.50;;;;;;;;;;4982556;24;20119;-89
2023/07/17 10:22:44;;;;;;;4.25;3.13;;;;;;;;;;4753970;30;20102;-89
2023/07/17 10:25:21;;;;;;;3.30;3.10;;;;;;;;;;4760395;30;20086;-89
2023/07/17 10:28:02;;;;;;;3.07;2.77;;;;;;;;;;4768088;29;20060;-90
2023/07/17 10:30:29;;;;;;;3.40;3.15;;;;;;;;;;4757395;30;20362;-89
2023/07/17 10:33:13;;;;;;;3.10;2.90;;;;;;;;;;4753075;30;20052;-89
2023/07/17 10:35:49;;;;;;;3.15;2.97;;;;;;;;;;4751584;30;20680;-89
2023/07/17 10:38:30;;;;;;;3.20;2.90;;;;;;;;;;4745435;30;20060;-89
2023/07/17 10:41:04;;;;;;;3.65;3.25;;;;;;;;;;4748404;30;20131;-88
2023/07/17 10:43:35;;;;;;;2.80;2.60;;;;;;;;;;4740894;30;20048;-89
2023/07/17 10:46:10;;;;;;;4.05;3.33;;;;;;;;;;4750318;30;20052;-88
2023/07/17 10:48:38;;;;;;;3.17;2.97;;;;;;;;;;4731695;30;20139;-89
2023/07/17 10:51:05;;;;;;;2.92;2.70;;;;;;;;;;4750011;30;20054;-88
2023/07/17 10:53:33;;;;;;;2.50;2.33;;;;;;;;;;4748145;30;20080;-88
2023/07/17 10:56:01;;;;;;;3.28;3.00;;;;;;;;;;4744196;30;20120;-88
2023/07/17 10:58:29;;;;;;;3.08;2.53;;;;;;;;;;4750358;30;20048;-88
2023/07/17 11:00:56;;;;;;;2.50;2.40;;;;;;;;;;4748181;30;20508;-88
2023/07/17 11:03:26;;;;;;;2.60;2.40;;;;;;;;;;4741121;30;21631;-87
2023/07/17 11:05:56;;;;;;;2.40;2.30;;;;;;;;;;4740267;30;20486;-87
2023/07/17 11:08:28;;;;;;;2.63;2.45;;;;;;;;;;4741286;30;20485;-87
2023/07/17 11:10:55;;;;;;;2.40;2.30;;;;;;;;;;4746332;30;20056;-88
2023/07/17 11:13:30;;;;;;;2.53;2.33;;;;;;;;;;4747962;30;20064;-88
2023/07/17 11:16:05;;;;;;;2.30;2.20;;;;;;;;;;4757808;30;20056;-88
2023/07/17 11:18:33;;;;;;;2.08;1.90;;;;;;;;;;4749068;30;20095;-88
2023/07/17 11:21:00;;;;;;;2.70;2.50;;;;;;;;;;4742274;30;20083;-87
2023/07/17 11:23:28;;;;;;;2.67;2.47;;;;;;;;;;4756639;30;20071;-88
2023/07/17 11:25:55;;;;;;;3.28;2.30;;;;;;;;;;4750938;30;20066;-88
2023/07/17 11:28:23;;;;;;;2.40;2.30;;;;;;;;;;4753357;30;20094;-88
2023/07/17 11:30:51;;;;;;;2.28;2.10;;;;;;;;;;4745871;30;20057;-87
2023/07/17 11:33:25;;;;;;;3.47;2.42;;;;;;;;;;4746922;30;20075;-87
2023/07/17 11:35:52;;;;;;;2.42;2.30;;;;;;;;;;4750964;30;20409;-88
2023/07/17 11:38:22;;;;;;;2.28;2.10;;;;;;;;;;4751759;30;20200;-88
2023/07/17 11:40:50;;;;;;;3.13;2.13;;;;;;;;;;4742277;30;20114;-88
2023/07/17 11:43:37;;;;;;;2.20;2.10;;;;;;;;;;4743043;30;20056;-87
2023/07/17 11:46:06;;;;;;;2.53;2.33;;;;;;;;;;4747410;30;20056;-88
2023/07/17 11:48:35;;;;;;;2.60;2.40;;;;;;;;;;4746201;30;20067;-87
2023/07/17 11:51:03;;;;;;;1.90;1.80;;;;;;;;;;4748051;30;20070;-88
2023/07/17 11:53:33;;;;;;;2.17;1.90;;;;;;;;;;4748860;30;20526;-87
2023/07/17 11:56:01;;;;;;;2.05;1.95;;;;;;;;;;4748395;30;20098;-88
2023/07/17 11:58:36;;;;;;;2.15;1.80;;;;;;;;;;4762011;30;20052;-88
2023/07/17 12:01:08;;;;;;;2.30;2.10;;;;;;;;;;4745560;30;20091;-88
2023/07/17 12:03:36;;;;;;;1.92;1.83;;;;;;;;;;4750369;30;20055;-87
2023/07/17 12:06:08;;;;;;;1.90;1.80;;;;;;;;;;4752074;30;20655;-89
2023/07/17 12:08:40;;;;;;;3.15;1.70;;;;;;;;;;4744172;30;20112;-88
2023/07/17 12:11:08;;;;;;;1.97;1.87;;;;;;;;;;4751380;30;20064;-88
2023/07/17 12:13:36;;;;;;;2.20;2.00;;;;;;;;;;4751855;30;20417;-88
2023/07/17 12:16:03;;;;;;;3.45;1.77;;;;;;;;;;4750573;30;20535;-88
2023/07/17 12:18:38;;;;;;;2.17;2.00;;;;;;;;;;4751764;30;20060;-88
2023/07/17 12:21:06;;;;;;;2.00;1.90;;;;;;;;;;4749208;30;20056;-88
2023/07/17 12:23:34;;;;;;;2.20;2.00;;;;;;;;;;4749095;30;20513;-88
2023/07/17 12:26:01;;;;;;;1.73;1.63;;;;;;;;;;4749922;30;20056;-88
2023/07/17 12:28:52;;;;;;;1.70;1.60;;;;;;;;;;4769782;30;20078;-87
2023/07/17 12:31:19;;;;;;;2.75;1.77;;;;;;;;;;4758408;30;20519;-88
2023/07/17 12:33:47;;;;;;;1.92;1.83;;;;;;;;;;4747748;30;20153;-87
2023/07/17 12:36:17;;;;;;;2.38;1.98;;;;;;;;;;4749330;30;20591;-87
2023/07/17 12:38:45;;;;;;;3.38;1.80;;;;;;;;;;4751182;30;20132;-87
2023/07/17 12:41:13;;;;;;;1.80;1.70;;;;;;;;;;4764842;30;20052;-87
2023/07/17 12:43:42;;;;;;;2.08;1.98;;;;;;;;;;4750525;30;20448;-87
2023/07/17 12:46:10;;;;;;;1.70;1.60;;;;;;;;;;4748248;30;20087;-88
2023/07/17 12:48:38;;;;;;;2.10;2.00;;;;;;;;;;4751135;30;20463;-87
2023/07/17 12:51:05;;;;;;;1.80;1.70;;;;;;;;;;4750047;30;20131;-88
2023/07/17 12:53:33;;;;;;;2.13;1.92;;;;;;;;;;4747032;30;20494;-87
2023/07/17 12:56:03;;;;;;;;;;;;;;;;;;4746138;30;20057;-87
2023/07/17 12:58:43;;;;;;;1.80;1.70;;;;;;;;;;4751497;30;20015;-88
2023/07/17 13:01:10;;;;;;;2.42;2.33;;;;;;;;;;4750508;30;20059;-87
2023/07/17 13:03:38;;;;;;;3.70;1.70;;;;;;;;;;4746489;30;20057;-87
2023/07/17 13:06:09;;;;;;;1.63;1.52;;;;;;;;;;4748134;30;20089;-87
2023/07/17 13:08:40;;;;;;;2.10;2.00;;;;;;;;;;4749027;30;20065;-87
2023/07/17 13:11:08;;;;;;;1.95;1.85;;;;;;;;;;4751554;30;20052;-87
2023/07/17 13:13:35;;;;;;;1.88;1.85;;;;;;;;;;4751335;30;20426;-88
2023/07/17 13:16:03;;;;;;;2.60;1.70;;;;;;;;;;4750760;30;20060;-87
2023/07/17 13:18:30;;;;;;;1.98;1.88;;;;;;;;;;4750655;30;20090;-87
2023/07/17 13:21:00;;;;;;;2.67;1.90;;;;;;;;;;4750596;30;20163;-88
2023/07/17 13:23:28;;;;;;;2.20;2.10;;;;;;;;;;4749892;30;20060;-87
2023/07/17 13:25:58;;;;;;;2.03;1.90;;;;;;;;;;4749270;30;20471;-88
2023/07/17 13:28:26;;;;;;;1.90;1.80;;;;;;;;;;4748739;30;20048;-88
2023/07/17 13:30:54;;;;;;;2.25;2.08;;;;;;;;;;4748753;30;20052;-88
2023/07/17 13:33:37;;;;;;;2.33;2.08;;;;;;;;;;4743813;30;20142;-87
2023/07/17 13:36:05;;;;;;;1.95;1.85;;;;;;;;;;4742167;30;20159;-88
2023/07/17 13:38:32;;;;;;;2.70;2.30;;;;;;;;;;4749624;30;20127;-88
2023/07/17 13:41:00;;;;;;;1.80;1.70;;;;;;;;;;4750469;30;20139;-88
2023/07/17 13:43:43;;;;;;;1.90;1.80;;;;;;;;;;4745088;30;20398;-88
2023/07/17 13:46:10;;;;;;;1.90;1.80;;;;;;;;;;4747446;30;20063;-87
2023/07/17 13:48:38;;;;;;;2.47;2.28;;;;;;;;;;4749807;30;20062;-88
2023/07/17 13:51:05;;;;;;;2.85;1.92;;;;;;;;;;4742514;30;20084;-87
2023/07/17 13:53:33;;;;;;;2.30;2.20;;;;;;;;;;4746113;30;20131;-87
2023/07/17 13:56:00;;;;;;;1.98;1.65;;;;;;;;;;4760443;30;20109;-87
2023/07/17 13:58:28;;;;;;;1.90;1.80;;;;;;;;;;4750578;30;20056;-87
2023/07/17 14:00:55;;;;;;;2.25;1.80;;;;;;;;;;4735451;30;20056;-88
2023/07/17 14:03:23;;;;;;;2.00;1.90;;;;;;;;;;4750450;30;20138;-88
2023/07/17 14:05:51;;;;;;;1.85;1.73;;;;;;;;;;4748561;30;20146;-87
2023/07/17 14:08:21;;;;;;;1.75;1.67;;;;;;;;;;4750182;30;20108;-87
2023/07/17 14:10:49;;;;;;;1.98;1.70;;;;;;;;;;4750226;30;20662;-87
2023/07/17 14:13:19;;;;;;;1.60;1.60;;;;;;;;;;4751323;30;20060;-88
2023/07/17 14:15:47;;;;;;;2.05;1.95;;;;;;;;;;4748765;30;20061;-88
2023/07/17 14:18:14;;;;;;;2.00;1.80;;;;;;;;;;4749912;30;20333;-88
2023/07/17 14:20:45;;;;;;;2.05;1.95;;;;;;;;;;4749225;30;20072;-88
2023/07/17 14:23:12;;;;;;;1.80;1.70;;;;;;;;;;4749058;30;20417;-88
2023/07/17 14:25:40;;;;;;;1.80;1.70;;;;;;;;;;4747658;30;20840;-88
2023/07/17 14:28:07;;;;;;;2.00;1.77;;;;;;;;;;4749564;30;20078;-89
2023/07/17 14:30:35;;;;;;;1.52;1.45;;;;;;;;;;4748632;30;20056;-88
2023/07/17 14:33:03;;;;;;;1.70;1.60;;;;;;;;;;4747591;30;20410;-87
2023/07/17 14:35:31;;;;;;;1.80;1.70;;;;;;;;;;4745797;30;20052;-88
2023/07/17 14:37:58;;;;;;;1.60;1.50;;;;;;;;;;4752848;30;20052;-88
2023/07/17 14:40:26;;;;;;;1.88;1.77;;;;;;;;;;4750965;30;20048;-87
2023/07/17 14:42:53;;;;;;;1.90;1.80;;;;;;;;;;4750195;30;20450;-88
2023/07/17 14:45:21;;;;;;;1.92;1.83;;;;;;;;;;4750389;30;20431;-88
2023/07/17 14:47:48;;;;;;;2.53;1.70;;;;;;;;;;4752771;30;20088;-87
2023/07/17 14:50:19;;;;;;;3.40;1.80;;;;;;;;;;4751748;30;20044;-87
2023/07/17 14:52:47;;;;;;;2.15;2.05;;;;;;;;;;4752836;30;20143;-87
2023/07/17 14:55:15;;;;;;;2.10;1.85;;;;;;;;;;4749208;30;20144;-87
2023/07/17 14:57:43;;;;;;;2.38;2.17;;;;;;;;;;4754211;30;20254;-87
2023/07/17 15:00:10;;;;;;;2.25;2.05;;;;;;;;;;4749586;30;20064;-87
2023/07/17 15:02:38;;;;;;;1.92;1.83;;;;;;;;;;4754269;30;20159;-87
2023/07/17 15:05:06;;;;;;;1.98;1.88;;;;;;;;;;4747809;30;20067;-87
2023/07/17 15:07:34;;;;;;;2.25;1.75;;;;;;;;;;4761348;30;20116;-87
2023/07/17 15:10:01;;;;;;;2.15;1.90;;;;;;;;;;4760880;30;20424;-87
2023/07/17 15:12:29;;;;;;;2.10;1.77;;;;;;;;;;4749325;30;20052;-87
2023/07/17 15:14:57;;;;;;;1.98;1.88;;;;;;;;;;4754583;30;20105;-87
2023/07/17 15:17:24;;;;;;;1.80;1.80;;;;;;;;;;4757077;30;20135;-87
2023/07/17 15:19:53;;;;;;;2.08;1.90;;;;;;;;;;4754787;30;20052;-86
2023/07/17 15:22:20;;;;;;;2.13;1.92;;;;;;;;;;4744634;30;20076;-86
2023/07/17 15:24:48;;;;;;;2.10;1.98;;;;;;;;;;4755723;30;20071;-87